createdAt,value
2022-08-17T00:00:44.085Z,51.85
2022-08-17T00:03:10.220Z,51.90
2022-08-17T00:05:42.155Z,52.07
2022-08-17T00:08:10.640Z,52.24
2022-08-17T00:10:40.513Z,52.33
2022-08-17T00:13:12.070Z,52.20
2022-08-17T00:15:40.711Z,52.33
2022-08-17T00:19:06.139Z,51.80
2022-08-17T00:21:00.529Z,52.15
2022-08-17T00:23:30.083Z,52.13
2022-08-17T00:25:58.270Z,51.99
2022-08-17T00:28:27.984Z,51.92
2022-08-17T00:31:01.544Z,51.69
2022-08-17T00:33:32.869Z,51.44
2022-08-17T00:36:02.650Z,51.40
2022-08-17T00:38:31.359Z,51.78
2022-08-17T00:41:10.046Z,51.85
2022-08-17T00:43:40.985Z,51.66
2022-08-17T00:46:19.176Z,51.30
2022-08-17T00:48:50.441Z,51.60
2022-08-17T00:51:26.988Z,51.67
2022-08-17T00:53:59.644Z,51.64
2022-08-17T00:56:32.660Z,51.93
2022-08-17T00:59:02.380Z,52.62
2022-08-17T01:01:31.464Z,52.38
2022-08-17T01:04:02.830Z,52.63
2022-08-17T01:06:31.385Z,52.66
2022-08-17T01:09:02.210Z,52.53
2022-08-17T01:11:32.425Z,52.30
2022-08-17T01:14:00.902Z,52.66
2022-08-17T01:16:31.240Z,52.19
2022-08-17T01:19:03.357Z,52.21
2022-08-17T01:21:39.878Z,52.81
2022-08-17T01:24:09.840Z,52.64
2022-08-17T01:26:43.896Z,53.05
2022-08-17T01:29:12.846Z,53.45
2022-08-17T01:31:44.507Z,54.28
2022-08-17T01:34:15.452Z,54.37
2022-08-17T01:36:46.059Z,54.23
2022-08-17T01:39:24.839Z,53.85
2022-08-17T01:41:56.663Z,53.66
2022-08-17T01:44:28.042Z,53.37
2022-08-17T01:46:56.193Z,51.61
2022-08-17T01:49:24.435Z,49.92
2022-08-17T01:51:52.960Z,49.22
2022-08-17T01:54:23.414Z,48.73
2022-08-17T01:56:53.436Z,48.79
2022-08-17T01:59:22.838Z,49.22
2022-08-17T02:01:51.499Z,49.04
2022-08-17T02:04:19.950Z,49.08
2022-08-17T02:06:53.598Z,49.80
2022-08-17T02:09:29.499Z,49.92
2022-08-17T02:11:59.562Z,49.56
2022-08-17T02:14:28.325Z,49.38
2022-08-17T02:16:56.963Z,49.66
2022-08-17T02:19:25.349Z,49.87
2022-08-17T02:21:56.458Z,49.56
2022-08-17T02:25:00.319Z,48.51
2022-08-17T02:27:23.722Z,48.04
2022-08-17T02:29:51.960Z,48.24
2022-08-17T02:32:27.333Z,48.16
2022-08-17T02:34:57.199Z,48.26
2022-08-17T02:37:25.692Z,48.13
2022-08-17T02:39:57.166Z,48.39
2022-08-17T02:42:29.255Z,48.48
2022-08-17T02:44:57.376Z,48.54
2022-08-17T02:47:25.782Z,48.60
2022-08-17T02:49:56.214Z,48.28
2022-08-17T02:52:43.779Z,47.85
2022-08-17T02:55:17.654Z,47.90
2022-08-17T02:57:46.489Z,47.95
2022-08-17T03:00:18.824Z,48.07
2022-08-17T03:02:47.385Z,47.82
2022-08-17T03:05:18.314Z,47.97
2022-08-17T03:07:46.571Z,47.99
2022-08-17T03:10:17.065Z,48.46
2022-08-17T03:12:46.191Z,48.82
2022-08-17T03:15:16.870Z,48.53
2022-08-17T03:17:45.525Z,48.47
2022-08-17T03:20:14.740Z,48.49
2022-08-17T03:22:48.069Z,48.27
2022-08-17T03:25:25.853Z,48.74
2022-08-17T03:27:55.415Z,48.25
2022-08-17T03:30:25.275Z,48.25
2022-08-17T03:32:56.011Z,48.26
2022-08-17T03:35:27.877Z,47.66
2022-08-17T03:37:57.030Z,47.58
2022-08-17T03:40:55.692Z,46.75
2022-08-17T03:43:20.693Z,45.60
2022-08-17T03:46:24.877Z,45.30
2022-08-17T03:49:12.602Z,45.67
2022-08-17T03:51:58.280Z,46.28
2022-08-17T03:54:43.820Z,45.00
2022-08-17T03:57:13.977Z,44.46
2022-08-17T03:59:42.180Z,44.76
2022-08-17T04:02:15.682Z,44.83
2022-08-17T04:04:43.862Z,44.94
2022-08-17T04:07:12.159Z,44.78
2022-08-17T04:09:40.868Z,44.73
2022-08-17T04:12:09.207Z,44.21
2022-08-17T04:14:50.823Z,43.76
2022-08-17T04:17:23.240Z,42.79
2022-08-17T04:19:51.446Z,43.01
2022-08-17T04:22:31.159Z,43.26
2022-08-17T04:25:06.062Z,43.35
2022-08-17T04:27:34.317Z,43.69
2022-08-17T04:30:03.904Z,44.06
2022-08-17T04:33:03.393Z,44.51
2022-08-17T04:35:22.671Z,44.92
2022-08-17T04:37:51.130Z,44.86
2022-08-17T04:40:40.562Z,44.85
2022-08-17T04:43:11.399Z,45.40
2022-08-17T04:45:55.458Z,45.36
2022-08-17T04:48:27.972Z,45.15
2022-08-17T04:51:07.243Z,44.67
2022-08-17T04:53:35.443Z,44.52
2022-08-17T04:56:04.204Z,44.52
2022-08-17T04:58:32.711Z,44.13
2022-08-17T05:01:02.613Z,44.79
2022-08-17T05:03:31.121Z,43.30
2022-08-17T05:05:59.325Z,43.54
2022-08-17T05:08:27.730Z,42.69
2022-08-17T05:10:55.984Z,42.29
2022-08-17T05:13:26.087Z,42.00
2022-08-17T05:15:56.176Z,39.70
2022-08-17T05:18:26.561Z,38.48
2022-08-17T05:20:57.644Z,39.01
2022-08-17T05:23:29.235Z,37.50
2022-08-17T05:26:11.650Z,34.78
2022-08-17T05:28:51.358Z,33.47
2022-08-17T05:31:20.588Z,32.68
2022-08-17T05:33:50.168Z,33.46
2022-08-17T05:36:42.397Z,34.46
2022-08-17T05:39:06.823Z,33.82
2022-08-17T05:41:34.958Z,31.86
2022-08-17T05:44:05.498Z,31.16
2022-08-17T05:46:37.552Z,31.30
2022-08-17T05:49:09.155Z,31.52
2022-08-17T05:51:55.762Z,32.16
2022-08-17T05:54:36.605Z,31.79
2022-08-17T05:57:34.108Z,30.46
2022-08-17T06:00:10.025Z,32.80
2022-08-17T06:02:50.666Z,33.82
2022-08-17T06:05:43.007Z,35.56
2022-08-17T06:08:18.174Z,36.00
2022-08-17T06:10:53.721Z,36.19
2022-08-17T06:13:32.800Z,36.60
2022-08-17T06:16:28.268Z,38.46
2022-08-17T06:19:00.993Z,36.98
2022-08-17T06:21:37.351Z,36.82
2022-08-17T06:24:19.730Z,37.43
2022-08-17T06:26:48.510Z,36.59
2022-08-17T06:29:27.131Z,35.13
2022-08-17T06:31:55.402Z,35.51
2022-08-17T06:34:23.794Z,35.52
2022-08-17T06:37:07.202Z,36.86
2022-08-17T06:39:45.208Z,36.10
2022-08-17T06:42:54.959Z,35.40
2022-08-17T06:45:18.777Z,32.97
2022-08-17T06:48:08.008Z,32.06
2022-08-17T06:50:38.570Z,32.59
2022-08-17T06:53:19.140Z,33.07
2022-08-17T06:55:54.072Z,33.65
2022-08-17T06:58:29.563Z,31.94
2022-08-17T07:01:01.761Z,29.75
2022-08-17T07:03:38.122Z,29.90
2022-08-17T07:06:12.398Z,29.19
2022-08-17T07:08:52.776Z,30.83
2022-08-17T07:11:24.894Z,30.25
2022-08-17T07:14:02.404Z,30.34
2022-08-17T07:16:37.687Z,29.97
2022-08-17T07:19:07.720Z,31.20
2022-08-17T07:22:01.724Z,30.07
2022-08-17T07:24:37.449Z,30.87
2022-08-17T07:27:15.175Z,31.63
2022-08-17T07:29:48.278Z,32.47
2022-08-17T07:32:19.577Z,32.86
2022-08-17T07:35:15.463Z,32.97
2022-08-17T07:37:46.477Z,33.02
2022-08-17T07:40:28.456Z,33.20
2022-08-17T07:43:23.424Z,34.30
2022-08-17T07:46:35.613Z,36.68
2022-08-17T07:49:23.125Z,38.75
2022-08-17T07:52:24.100Z,39.21
2022-08-17T07:54:49.536Z,39.77
2022-08-17T07:57:43.230Z,40.82
2022-08-17T08:00:23.864Z,40.03
2022-08-17T08:03:14.850Z,39.55
2022-08-17T08:05:55.296Z,40.54
2022-08-17T08:08:29.263Z,40.24
2022-08-17T08:11:05.395Z,40.66
2022-08-17T08:13:35.855Z,41.21
2022-08-17T08:16:24.669Z,39.60
2022-08-17T08:18:57.388Z,39.36
2022-08-17T08:21:46.505Z,39.66
2022-08-17T08:24:32.450Z,39.19
2022-08-17T08:27:09.473Z,38.21
2022-08-17T08:29:49.917Z,38.75
2022-08-17T08:32:23.577Z,39.53
2022-08-17T08:35:02.832Z,38.93
2022-08-17T08:37:43.490Z,38.50
2022-08-17T08:40:30.134Z,38.07
2022-08-17T08:43:09.202Z,37.48
2022-08-17T08:45:49.691Z,37.32
2022-08-17T08:48:53.658Z,37.03
2022-08-17T08:51:31.589Z,35.13
2022-08-17T08:54:05.199Z,35.40
2022-08-17T08:56:53.764Z,34.47
2022-08-17T08:59:34.118Z,33.23
2022-08-17T09:02:23.922Z,33.82
2022-08-17T09:05:14.201Z,35.11
2022-08-17T09:07:56.318Z,35.35
2022-08-17T09:10:30.611Z,32.77
2022-08-17T09:13:10.127Z,34.75
2022-08-17T09:15:44.295Z,34.53
2022-08-17T09:19:02.795Z,34.63
2022-08-17T09:21:18.188Z,34.89
2022-08-17T09:23:59.846Z,33.85
2022-08-17T09:26:36.194Z,33.89
2022-08-17T09:29:10.115Z,32.98
2022-08-17T09:31:48.761Z,33.22
2022-08-17T09:34:29.600Z,33.71
2022-08-17T09:37:08.831Z,33.29
2022-08-17T09:39:43.430Z,33.18
2022-08-17T09:42:19.244Z,33.70
2022-08-17T09:44:55.821Z,33.83
2022-08-17T09:47:30.691Z,37.29
2022-08-17T09:50:05.131Z,44.38
2022-08-17T09:52:33.631Z,42.42
2022-08-17T09:55:02.260Z,42.31
2022-08-17T09:57:46.997Z,44.61
2022-08-17T10:00:25.207Z,50.85
2022-08-17T10:03:34.515Z,55.45
2022-08-17T10:06:13.388Z,56.72
2022-08-17T10:08:52.632Z,56.26
2022-08-17T10:11:50.680Z,58.01
2022-08-17T10:14:44.011Z,55.55
2022-08-17T10:17:21.250Z,53.25
2022-08-17T10:19:59.434Z,53.01
2022-08-17T10:22:54.832Z,55.47
2022-08-17T10:25:55.200Z,52.64
2022-08-17T10:28:30.249Z,51.92
2022-08-17T10:31:33.655Z,50.66
2022-08-17T10:34:12.041Z,52.15
2022-08-17T10:36:50.746Z,51.26
2022-08-17T10:39:30.956Z,51.96
2022-08-17T10:42:05.529Z,50.15
2022-08-17T10:44:45.784Z,51.04
2022-08-17T10:47:16.532Z,53.62
2022-08-17T10:49:48.045Z,54.21
2022-08-17T10:52:50.241Z,55.37
2022-08-17T10:55:21.419Z,54.44
2022-08-17T10:57:51.639Z,55.88
2022-08-17T11:01:04.606Z,54.51
2022-08-17T11:03:33.361Z,55.50
2022-08-17T11:06:12.762Z,53.76
2022-08-17T11:09:16.673Z,53.35
2022-08-17T11:12:17.414Z,54.55
2022-08-17T11:15:01.929Z,52.82
2022-08-17T11:17:54.656Z,54.05
2022-08-17T11:21:02.435Z,50.25
2022-08-17T11:23:54.236Z,46.14
2022-08-17T11:26:27.110Z,50.09
2022-08-17T11:29:02.283Z,51.33
2022-08-17T11:31:38.442Z,50.87
2022-08-17T11:34:15.926Z,50.85
2022-08-17T11:37:10.007Z,52.12
2022-08-17T11:40:05.968Z,52.89
2022-08-17T11:43:01.202Z,52.51
2022-08-17T11:45:51.421Z,52.29
2022-08-17T11:48:44.298Z,48.36
2022-08-17T11:51:41.435Z,50.07
2022-08-17T11:54:32.198Z,50.55
2022-08-17T11:57:21.580Z,55.46
2022-08-17T12:00:06.279Z,55.63
2022-08-17T12:02:47.823Z,56.66
2022-08-17T12:05:31.128Z,53.90
2022-08-17T12:08:08.634Z,53.15
2022-08-17T12:10:41.825Z,51.29
2022-08-17T12:13:15.465Z,50.48
2022-08-17T12:15:48.964Z,50.80
2022-08-17T12:18:22.988Z,50.69
2022-08-17T12:21:21.628Z,51.10
2022-08-17T12:23:57.698Z,52.83
2022-08-17T12:26:30.458Z,54.12
2022-08-17T12:29:02.341Z,54.90
2022-08-17T12:31:35.606Z,55.91
2022-08-17T12:34:06.201Z,54.78
2022-08-17T12:36:35.234Z,49.91
2022-08-17T12:39:13.736Z,50.97
2022-08-17T12:41:47.046Z,52.15
2022-08-17T12:44:18.316Z,50.73
2022-08-17T12:46:53.358Z,49.32
2022-08-17T12:49:27.617Z,49.49
2022-08-17T12:52:04.380Z,48.26
2022-08-17T12:54:42.577Z,46.16
2022-08-17T12:57:17.078Z,45.22
2022-08-17T12:59:48.848Z,44.11
2022-08-17T13:02:31.676Z,44.80
2022-08-17T13:05:02.806Z,44.29
2022-08-17T13:07:37.246Z,43.65
2022-08-17T13:10:06.338Z,43.33
2022-08-17T13:12:37.032Z,43.64
2022-08-17T13:15:05.974Z,43.84
2022-08-17T13:17:37.021Z,43.66
2022-08-17T13:20:16.374Z,44.37
2022-08-17T13:22:45.367Z,43.31
2022-08-17T13:25:18.199Z,42.36
2022-08-17T13:27:49.022Z,43.67
2022-08-17T13:30:27.368Z,44.51
2022-08-17T13:32:57.417Z,44.81
2022-08-17T13:35:39.737Z,45.31
2022-08-17T13:38:11.640Z,46.38
2022-08-17T13:40:43.690Z,47.27
2022-08-17T13:43:13.479Z,46.60
2022-08-17T13:45:51.167Z,47.44
2022-08-17T13:48:24.336Z,47.68
2022-08-17T13:51:21.673Z,48.20
2022-08-17T13:54:05.245Z,48.67
2022-08-17T13:56:48.223Z,48.61
2022-08-17T13:59:36.379Z,48.94
2022-08-17T14:02:18.673Z,48.42
2022-08-17T14:04:49.639Z,48.37
2022-08-17T14:07:30.367Z,47.65
2022-08-17T14:10:02.456Z,46.66
2022-08-17T14:12:34.375Z,46.77
2022-08-17T14:15:02.908Z,47.03
2022-08-17T14:17:36.375Z,46.37
2022-08-17T14:20:09.580Z,48.08
2022-08-17T14:22:41.788Z,48.01
2022-08-17T14:25:12.354Z,45.32
2022-08-17T14:27:41.887Z,45.52
2022-08-17T14:30:21.332Z,45.25
2022-08-17T14:32:51.876Z,45.07
2022-08-17T14:35:23.323Z,45.28
2022-08-17T14:37:53.698Z,45.36
2022-08-17T14:40:24.706Z,43.72
2022-08-17T14:42:55.305Z,46.93
2022-08-17T14:45:29.871Z,48.74
2022-08-17T14:48:04.251Z,48.61
2022-08-17T14:50:35.449Z,47.43
2022-08-17T14:53:07.118Z,47.38
2022-08-17T14:55:36.946Z,46.44
2022-08-17T14:58:05.175Z,46.99
2022-08-17T15:00:33.439Z,48.59
2022-08-17T15:03:02.719Z,48.35
2022-08-17T15:05:32.693Z,49.43
2022-08-17T15:08:02.236Z,50.16
2022-08-17T15:10:32.744Z,47.82
2022-08-17T15:13:01.370Z,48.88
2022-08-17T15:15:30.200Z,49.36
2022-08-17T15:17:58.860Z,51.22
2022-08-17T15:20:29.861Z,51.03
2022-08-17T15:22:59.411Z,51.24
2022-08-17T15:25:29.747Z,51.10
2022-08-17T15:27:59.846Z,52.31
2022-08-17T15:30:29.011Z,53.48
2022-08-17T15:32:58.791Z,52.40
2022-08-17T15:35:29.435Z,49.78
2022-08-17T15:38:08.357Z,50.17
2022-08-17T15:40:44.507Z,50.25
2022-08-17T15:43:16.964Z,49.99
2022-08-17T15:45:58.650Z,49.10
2022-08-17T15:48:41.335Z,47.50
2022-08-17T15:51:12.329Z,48.19
2022-08-17T15:53:41.717Z,50.29
2022-08-17T15:56:11.359Z,53.18
2022-08-17T15:58:42.317Z,54.64
2022-08-17T16:01:16.473Z,54.39
2022-08-17T16:04:04.113Z,53.83
2022-08-17T16:06:33.645Z,55.83
2022-08-17T16:09:01.964Z,55.31
2022-08-17T16:11:30.386Z,55.38
2022-08-17T16:14:00.985Z,56.53
2022-08-17T16:16:31.341Z,59.72
2022-08-17T16:18:59.643Z,59.72
2022-08-17T16:21:31.220Z,61.65
2022-08-17T16:24:12.867Z,62.87
2022-08-17T16:26:41.770Z,65.06
2022-08-17T16:29:11.687Z,65.40
2022-08-17T16:31:41.909Z,64.62
2022-08-17T16:34:17.899Z,63.80
2022-08-17T16:36:55.473Z,64.68
2022-08-17T16:39:26.110Z,65.30
2022-08-17T16:41:54.596Z,65.50
2022-08-17T16:44:24.193Z,65.05
2022-08-17T16:46:52.393Z,65.92
2022-08-17T16:49:27.577Z,66.41
2022-08-17T16:52:06.019Z,66.68
2022-08-17T16:54:35.505Z,67.49
2022-08-17T16:57:05.312Z,67.30
2022-08-17T16:59:40.749Z,67.48
2022-08-17T17:02:11.378Z,67.18
2022-08-17T17:04:47.544Z,67.93
2022-08-17T17:07:33.955Z,68.04
2022-08-17T17:10:06.611Z,68.24
2022-08-17T17:13:00.824Z,69.79
2022-08-17T17:15:32.006Z,70.55
2022-08-17T17:18:07.299Z,70.35
2022-08-17T17:20:45.878Z,70.93
2022-08-17T17:23:28.390Z,70.71
2022-08-17T17:26:06.425Z,70.83
2022-08-17T17:29:00.273Z,71.32
2022-08-17T17:31:38.408Z,72.59
2022-08-17T17:34:11.330Z,72.26
2022-08-17T17:36:45.898Z,72.57
2022-08-17T17:39:20.249Z,72.13
2022-08-17T17:41:54.715Z,71.29
2022-08-17T17:44:28.832Z,71.08
2022-08-17T17:47:00.346Z,70.72
2022-08-17T17:49:35.544Z,70.57
2022-08-17T17:52:14.226Z,72.25
2022-08-17T17:55:01.870Z,72.79
2022-08-17T17:57:42.029Z,72.74
2022-08-17T18:00:15.209Z,72.60
2022-08-17T18:02:58.346Z,71.51
2022-08-17T18:05:40.679Z,70.86
2022-08-17T18:08:19.920Z,70.11
2022-08-17T18:11:10.850Z,68.59
2022-08-17T18:13:54.549Z,68.67
2022-08-17T18:16:23.266Z,67.24
2022-08-17T18:18:53.830Z,67.48
2022-08-17T18:21:24.470Z,66.39
2022-08-17T18:23:56.213Z,67.31
2022-08-17T18:26:45.105Z,66.88
2022-08-17T18:29:43.921Z,67.48
2022-08-17T18:32:37.544Z,68.09
2022-08-17T18:35:28.365Z,68.38
2022-08-17T18:37:59.457Z,69.26
2022-08-17T18:40:38.323Z,68.72
2022-08-17T18:43:13.863Z,68.53
2022-08-17T18:45:47.477Z,68.51
2022-08-17T18:48:24.600Z,68.75
2022-08-17T18:50:57.549Z,68.94
2022-08-17T18:53:38.006Z,68.83
2022-08-17T18:56:27.550Z,68.81
2022-08-17T18:59:06.152Z,68.86
2022-08-17T19:02:09.976Z,68.33
2022-08-17T19:04:44.488Z,68.35
2022-08-17T19:07:27.615Z,68.61
2022-08-17T19:10:01.906Z,68.43
2022-08-17T19:12:45.043Z,68.38
2022-08-17T19:15:17.360Z,68.42
2022-08-17T19:17:49.347Z,68.72
2022-08-17T19:20:21.332Z,68.69
2022-08-17T19:23:03.190Z,68.71
2022-08-17T19:25:35.643Z,69.10
2022-08-17T19:28:15.376Z,68.44
2022-08-17T19:30:55.904Z,68.57
2022-08-17T19:33:24.415Z,69.15
2022-08-17T19:36:02.377Z,68.67
2022-08-17T19:38:54.207Z,68.16
2022-08-17T19:41:30.082Z,68.45
2022-08-17T19:44:27.117Z,67.90
2022-08-17T19:47:03.163Z,67.79
2022-08-17T19:49:49.331Z,66.92
2022-08-17T19:52:34.474Z,67.81
2022-08-17T19:55:10.699Z,69.59
2022-08-17T19:57:46.733Z,68.89
2022-08-17T20:00:17.368Z,68.43
2022-08-17T20:02:53.314Z,67.97
2022-08-17T20:05:25.207Z,68.21
2022-08-17T20:07:58.190Z,68.65
2022-08-17T20:10:39.846Z,68.56
2022-08-17T20:13:12.078Z,68.45
2022-08-17T20:15:43.359Z,68.86
2022-08-17T20:18:21.237Z,69.06
2022-08-17T20:20:57.818Z,69.19
2022-08-17T20:23:46.058Z,69.34
2022-08-17T20:26:22.878Z,69.54
2022-08-17T20:29:08.159Z,69.45
2022-08-17T20:31:49.639Z,69.79
2022-08-17T20:34:37.712Z,70.35
2022-08-17T20:37:09.357Z,70.34
2022-08-17T20:39:41.295Z,71.00
2022-08-17T20:42:30.324Z,71.99
2022-08-17T20:45:02.771Z,72.34
2022-08-17T20:47:34.210Z,72.60
2022-08-17T20:50:06.996Z,72.61
2022-08-17T20:52:52.102Z,72.45
2022-08-17T20:55:54.840Z,72.91
2022-08-17T20:58:47.423Z,73.09
2022-08-17T21:01:24.526Z,73.40
2022-08-17T21:03:54.278Z,74.04
2022-08-17T21:06:25.375Z,73.74
2022-08-17T21:09:00.723Z,74.36
2022-08-17T21:12:04.119Z,74.65
2022-08-17T21:14:42.233Z,74.40
2022-08-17T21:17:31.194Z,74.49
2022-08-17T21:20:11.390Z,74.87
2022-08-17T21:22:53.403Z,75.06
2022-08-17T21:25:35.684Z,76.25
2022-08-17T21:28:13.398Z,76.71
2022-08-17T21:30:51.756Z,77.99
2022-08-17T21:33:25.301Z,78.45
2022-08-17T21:35:58.672Z,79.07
2022-08-17T21:38:37.914Z,78.69
2022-08-17T21:41:06.480Z,78.96
2022-08-17T21:43:37.621Z,80.30
2022-08-17T21:46:12.096Z,81.17
2022-08-17T21:48:45.269Z,81.11
2022-08-17T21:51:20.770Z,81.13
2022-08-17T21:53:51.439Z,80.32
2022-08-17T21:56:25.887Z,80.15
2022-08-17T21:59:00.819Z,80.37
2022-08-17T22:01:34.431Z,81.09
2022-08-17T22:04:05.666Z,80.74
2022-08-17T22:06:39.844Z,81.13
2022-08-17T22:09:15.703Z,81.63
2022-08-17T22:11:52.824Z,81.38
2022-08-17T22:14:22.704Z,81.68
2022-08-17T22:17:07.662Z,81.23
2022-08-17T22:19:37.121Z,81.07
2022-08-17T22:22:07.472Z,81.26
2022-08-17T22:24:36.919Z,82.48
2022-08-17T22:27:10.289Z,83.29
2022-08-17T22:29:57.783Z,83.67
2022-08-17T22:32:40.939Z,83.98
2022-08-17T22:35:45.753Z,84.52
2022-08-17T22:38:29.245Z,83.88
2022-08-17T22:41:13.904Z,83.30
2022-08-17T22:43:43.810Z,83.62
2022-08-17T22:46:15.028Z,83.91
2022-08-17T22:48:52.078Z,84.44
2022-08-17T22:51:23.516Z,84.84
2022-08-17T22:54:13.081Z,85.32
2022-08-17T22:57:07.333Z,85.05
2022-08-17T22:59:45.053Z,84.87
2022-08-17T23:02:20.649Z,84.17
2022-08-17T23:04:53.234Z,82.27
2022-08-17T23:07:24.102Z,75.82
2022-08-17T23:09:54.019Z,72.27
2022-08-17T23:12:27.259Z,69.98
2022-08-17T23:15:01.697Z,71.77
2022-08-17T23:17:36.890Z,69.28
2022-08-17T23:20:12.230Z,70.55
2022-08-17T23:22:51.265Z,69.85
2022-08-17T23:25:27.214Z,69.00
2022-08-17T23:27:55.668Z,69.13
2022-08-17T23:30:25.513Z,67.32
2022-08-17T23:32:54.479Z,68.45
2022-08-17T23:35:40.065Z,69.81
2022-08-17T23:38:10.114Z,71.06
2022-08-17T23:40:39.327Z,72.57
2022-08-17T23:43:23.521Z,69.17
2022-08-17T23:45:53.453Z,70.56
2022-08-17T23:48:36.110Z,71.93
2022-08-17T23:51:12.555Z,72.19
2022-08-17T23:53:46.560Z,73.59
2022-08-17T23:56:15.521Z,73.78
2022-08-17T23:58:44.999Z,74.46
